• Join FlightAware (Why Join?)
  • Login
  • US Flag 
10:11PM EDT


 

Airport Tracker/Info


-or-


 

Live Flight TrackerFlight Track Log ✈ AWE3794 ✈ 09-Sep-2013 ✈ KORF - KCLT

Flight Track Log - Related Links

Times and Time Zones

All times are in EDT time to prevent confusion due to time zone crossing. See the AWE3794 flight status page for this flight to view local times or setup timezone preferences in your user account.

Time Position Orientation Groundspeed Altitude Reporting Facility
EDT Latitude Longitude Course Direction KTS MPH feet Rate Location/Type
04:08PM 36.9078 -76.1919 247° West 184 212 700  Level Washington Center
04:09PM 36.9558 -76.1636 25° Northeast 254 292 3,100 2,520 Climbing Washington Center
04:10PM 36.9722 -76.2392 285° West 272 313 5,700 2,760 Climbing Washington Center
04:11PM 36.7840 -76.5376 247° West  Level Estimated
04:11PM 36.9425 -76.3300 248° West 273 314 8,700  Level Washington Center
04:12PM 36.7562 -76.6215 244° Southwest  Level Estimated
04:12PM 36.9125 -76.4206 248° West 287 330 10,900  Level Washington Center
04:13PM 36.7283 -76.7054 247° West  Level Estimated
04:13PM 36.8850 -76.5033 247° West 297 342 12,800  Level Washington Center
04:14PM 36.8508 -76.6017 247° West 297 342 14,600 1,560 Climbing Washington Center
04:15PM 36.8164 -76.6997 246° West 302 348 16,000 1,560 Climbing Washington Center
04:16PM 36.7842 -76.8031 249° West 317 365 17,800 1,620 Climbing Washington Center
04:17PM 36.7456 -76.9114 246° West 327 376 19,300 1,320 Climbing Washington Center
04:18PM 36.7108 -77.0169 248° West 333 383 20,500 1,140 Climbing Washington Center
04:19PM 36.6636 -77.1197 240° Southwest 333 383 21,700 720 Climbing Washington Center
04:20PM 36.6122 -77.2247 239° Southwest 348 400 22,000 120 Climbing Washington Center
04:21PM 36.5586 -77.3425 240° Southwest 376 433 22,000  Level Washington Center
04:22PM 36.5025 -77.4628 240° Southwest 401 461 22,000  Level Washington Center
04:23PM 36.4442 -77.5878 240° Southwest 412 474 22,000  Level Washington Center
04:24PM 36.3897 -77.7103 241° Southwest 412 474 22,000  Level Washington Center
04:25PM 36.3311 -77.8325 239° Southwest 412 474 22,000  Level Washington Center
04:26PM 36.2747 -77.9544 240° Southwest 412 474 22,000  Level Washington Center
04:27PM 36.2158 -78.0764 239° Southwest 412 474 22,000 -240 Level Washington Center
04:28PM 36.1592 -78.1956 240° Southwest 412 474 21,600 -1,020 Descending Washington Center
04:29PM 36.1000 -78.3219 240° Southwest 418 481 20,000 -840 Descending Washington Center
04:30PM 36.0431 -78.4383 239° Southwest 413 475 20,000  Level Washington Center
04:31PM 35.9903 -78.5494 240° Southwest 402 463 20,000  Level Washington Center
04:32PM 35.9353 -78.6600 238° Southwest 391 450 20,000  Level Washington Center
04:33PM 35.9364 -78.7808 271° West 359 413 20,000  Level Washington Center
04:34PM 35.9728 -78.8978 291° West 351 404 20,000 -540 Level Washington Center
04:35PM 36.0111 -79.0150 292° West 363 418 19,000 -1,020 Descending Washington Center
04:36PM 36.0492 -79.1400 291° West 376 433 18,000 -540 Descending Washington Center
04:37PM 36.0789 -79.2672 286° West 387 445 18,000 -240 Level Washington Center
04:38PM 36.0556 -79.4072 258° West 401 461 17,600 -360 Descending Washington Center
04:40PM 36.0169 -79.6386 258° West 406 467 17,000 -240 Descending Atlanta Center
04:41PM 35.9783 -79.7869 252° West 406 467 17,000 -240 Level Atlanta Center
04:42PM 35.9433 -79.9197 252° West 406 467 16,600 -720 Descending Atlanta Center
04:43PM 35.9100 -80.0469 252° West 406 467 15,600 -1,020 Descending Atlanta Center
04:44PM 35.8806 -80.1714 254° West 399 459 14,600 -1,080 Descending Atlanta Center
04:45PM 35.8567 -80.2725 254° West 371 427 13,700 -1,140 Descending Atlanta Center
04:45PM 35.8489 -80.2933 245° Southwest 392 451 13,500 -960 Descending Atlanta Center
04:45PM 35.8431 -80.3114 248° West 369 425 13,400 -540 Descending Atlanta Center
04:46PM 35.8186 -80.3997 251° West 370 426 13,000 -420 Descending Atlanta Center
04:46PM 35.8150 -80.4178 256° West 302 348 13,000 -720 Level Atlanta Center
04:47PM 35.7708 -80.4708 224° Southwest 307 353 12,300 -1,260 Descending Atlanta Center
04:47PM 35.7503 -80.4872 213° Southwest 310 357 11,700 -1,620 Descending Atlanta Center
04:48PM 35.6972 -80.5253 210° Southwest 307 353 10,700 -1,500 Descending Atlanta Center
04:48PM 35.6767 -80.5339 199° South 291 335 10,200 -1,500 Descending Atlanta Center
04:49PM 35.6206 -80.5489 192° South 290 334 9,200 -1,560 Descending Atlanta Center
04:49PM 35.6128 -80.5672 242° Southwest 268 308 8,800 -1,620 Descending Atlanta Center
04:50PM 35.6231 -80.6306 281° West 211 243 7,600 -1,680 Descending Atlanta Center
04:50PM 35.6339 -80.6506 304° West 265 305 7,100 -1,620 Descending Atlanta Center
04:51PM 35.6400 -80.7169 276° West 231 266 6,000 -1,140 Descending Atlanta Center
04:51PM 35.6386 -80.7450 267° West 274 315 6,000 -540 Level Atlanta Center
04:52PM 35.6342 -80.8092 265° West 270 311 5,500 -1,080 Descending Atlanta Center
04:52PM 35.6328 -80.8422 267° West 270 311 4,800 -1,500 Descending Atlanta Center
04:53PM 35.6261 -80.9039 262° West 275 316 4,000 -900 Descending Atlanta Center
04:53PM 35.6267 -80.9242 272° West 254 292 4,000  Level Atlanta Center
04:54PM 35.6175 -80.9808 259° West 245 282 4,000  Level Atlanta Center
04:54PM 35.6033 -80.9992 226° Southwest 204 235 4,000  Level Atlanta Center
04:55PM 35.5569 -80.9806 162° South 194 223 4,000  Level Atlanta Center
04:56PM 35.5025 -80.9647 167° South 187 215 4,000  Level Atlanta Center
04:57PM 35.4522 -80.9564 172° South 182 209 4,000  Level Atlanta Center
04:58PM 35.4042 -80.9531 177° South 184 212 4,000 -480 Level Atlanta Center
04:59PM 35.3475 -80.9475 175° South 180 207 3,100 -840 Descending Atlanta Center
05:00PM 35.3039 -80.9467 179° South 175 201 2,300 -840 Descending Atlanta Center
05:01PM 35.2619 -80.9433 176° South 151 174 1,500 -840 Descending Atlanta Center